createdAt,value
2022-09-01T00:00:55.389Z,7.70
2022-09-01T00:01:57.946Z,4.90
2022-09-01T00:03:00.323Z,5.72
2022-09-01T00:04:04.293Z,10.45
2022-09-01T00:05:07.718Z,4.95
2022-09-01T00:06:11.595Z,8.43
2022-09-01T00:07:14.720Z,14.02
2022-09-01T00:08:18.475Z,7.28
2022-09-01T00:09:23.190Z,5.68
2022-09-01T00:10:25.462Z,6.63
2022-09-01T00:11:29.039Z,5.57
2022-09-01T00:12:31.962Z,6.65
2022-09-01T00:13:34.324Z,5.72
2022-09-01T00:14:41.531Z,7.90
2022-09-01T00:15:44.184Z,6.63
2022-09-01T00:16:46.561Z,6.30
2022-09-01T00:17:53.941Z,6.55
2022-09-01T00:18:57.900Z,7.95
2022-09-01T00:20:00.223Z,6.30
2022-09-01T00:21:02.460Z,5.22
2022-09-01T00:22:04.968Z,7.13
2022-09-01T00:23:07.217Z,7.03
2022-09-01T00:24:11.154Z,9.93
2022-09-01T00:25:13.448Z,5.95
2022-09-01T00:26:15.693Z,5.07
2022-09-01T00:27:17.961Z,6.30
2022-09-01T00:28:21.476Z,7.72
2022-09-01T00:29:31.444Z,5.45
2022-09-01T00:30:33.709Z,7.07
2022-09-01T00:31:36.496Z,5.57
2022-09-01T00:32:38.861Z,7.20
2022-09-01T00:33:41.587Z,7.50
2022-09-01T00:34:43.767Z,8.82
2022-09-01T00:35:46.034Z,6.40
2022-09-01T00:36:48.770Z,6.18
2022-09-01T00:37:51.168Z,8.50
2022-09-01T00:38:54.042Z,7.13
2022-09-01T00:39:56.418Z,5.53
2022-09-01T00:41:00.666Z,6.63
2022-09-01T00:42:03.596Z,5.50
2022-09-01T00:43:20.592Z,7.50
2022-09-01T00:44:28.845Z,7.00
2022-09-01T00:45:33.523Z,9.88
2022-09-01T00:46:51.013Z,6.13
2022-09-01T00:47:57.397Z,15.55
2022-09-01T00:49:04.758Z,6.57
2022-09-01T00:50:09.573Z,9.32
2022-09-01T00:51:13.071Z,5.63
2022-09-01T00:52:39.189Z,8.93
2022-09-01T00:53:43.953Z,8.13
2022-09-01T00:54:50.473Z,8.77
2022-09-01T00:55:52.906Z,7.38
2022-09-01T00:56:57.679Z,11.88
2022-09-01T00:58:03.329Z,7.68
2022-09-01T00:59:07.550Z,5.65
2022-09-01T01:00:15.658Z,7.75
2022-09-01T01:01:18.268Z,9.57
2022-09-01T01:02:20.659Z,9.25
2022-09-01T01:03:24.031Z,10.35
2022-09-01T01:04:26.320Z,6.38
2022-09-01T01:05:36.469Z,8.68
2022-09-01T01:06:39.292Z,6.78
2022-09-01T01:07:46.027Z,9.43
2022-09-01T01:08:58.097Z,8.85
2022-09-01T01:10:00.382Z,10.77
2022-09-01T01:11:09.380Z,9.00
2022-09-01T01:12:13.709Z,8.20
2022-09-01T01:13:17.072Z,8.63
2022-09-01T01:14:20.157Z,6.15
2022-09-01T01:15:22.412Z,9.38
2022-09-01T01:16:27.608Z,7.25
2022-09-01T01:17:29.863Z,6.88
2022-09-01T01:18:32.100Z,8.68
2022-09-01T01:20:05.381Z,7.00
2022-09-01T01:21:36.240Z,7.13
2022-09-01T01:23:03.675Z,9.32
2022-09-01T01:24:27.442Z,7.50
2022-09-01T01:25:34.361Z,9.75
2022-09-01T01:26:37.228Z,7.85
2022-09-01T01:27:43.102Z,9.18
2022-09-01T01:28:45.618Z,9.27
2022-09-01T01:29:50.126Z,7.75
2022-09-01T01:30:59.306Z,8.50
2022-09-01T01:32:02.109Z,8.57
2022-09-01T01:33:05.882Z,6.97
2022-09-01T01:34:08.794Z,9.90
2022-09-01T01:35:14.761Z,11.73
2022-09-01T01:36:36.218Z,7.65
2022-09-01T01:37:39.575Z,9.75
2022-09-01T01:38:44.423Z,9.32
2022-09-01T01:39:49.114Z,6.93
2022-09-01T01:40:53.687Z,9.88
2022-09-01T01:41:59.085Z,9.77
2022-09-01T01:43:01.950Z,10.23
2022-09-01T01:44:05.243Z,7.43
2022-09-01T01:45:12.573Z,11.30
2022-09-01T01:46:18.981Z,8.30
2022-09-01T01:47:21.887Z,6.97
2022-09-01T01:48:24.712Z,9.50
2022-09-01T01:49:31.047Z,8.82
2022-09-01T01:50:35.719Z,11.05
2022-09-01T01:51:39.547Z,8.38
2022-09-01T01:52:45.489Z,9.35
2022-09-01T01:53:52.532Z,9.50
2022-09-01T01:54:55.392Z,8.05
2022-09-01T01:56:00.853Z,8.00
2022-09-01T01:57:08.043Z,10.63
2022-09-01T01:58:15.289Z,9.75
2022-09-01T01:59:19.585Z,12.63
2022-09-01T02:00:27.068Z,8.30
2022-09-01T02:01:33.390Z,10.32
2022-09-01T02:02:38.013Z,8.05
2022-09-01T02:03:40.813Z,10.07
2022-09-01T02:04:43.451Z,10.57
2022-09-01T02:05:49.192Z,9.88
2022-09-01T02:06:52.258Z,11.68
2022-09-01T02:07:56.693Z,7.50
2022-09-01T02:09:03.469Z,11.90
2022-09-01T02:10:06.742Z,10.60
2022-09-01T02:11:09.189Z,9.35
2022-09-01T02:12:11.971Z,11.77
2022-09-01T02:13:25.095Z,9.45
2022-09-01T02:14:29.093Z,7.78
2022-09-01T02:15:35.042Z,10.80
2022-09-01T02:16:37.405Z,9.07
2022-09-01T02:17:43.122Z,10.38
2022-09-01T02:18:49.869Z,12.55
2022-09-01T02:19:57.467Z,16.95
2022-09-01T02:21:00.874Z,10.98
2022-09-01T02:22:03.174Z,11.00
2022-09-01T02:23:10.579Z,12.35
2022-09-01T02:24:13.685Z,10.18
2022-09-01T02:25:16.580Z,11.45
2022-09-01T02:26:19.014Z,12.35
2022-09-01T02:27:25.769Z,10.80
2022-09-01T02:28:32.043Z,9.45
2022-09-01T02:29:37.069Z,9.18
2022-09-01T02:30:49.208Z,8.85
2022-09-01T02:31:54.120Z,9.75
2022-09-01T02:32:58.395Z,10.60
2022-09-01T02:34:03.714Z,9.68
2022-09-01T02:35:09.919Z,10.93
2022-09-01T02:36:16.248Z,10.15
2022-09-01T02:37:18.458Z,10.32
2022-09-01T02:38:26.200Z,12.15
2022-09-01T02:39:33.456Z,10.30
2022-09-01T02:40:39.118Z,9.05
2022-09-01T02:41:42.139Z,11.63
2022-09-01T02:42:47.320Z,11.27
2022-09-01T02:43:50.078Z,11.25
2022-09-01T02:44:56.165Z,14.75
2022-09-01T02:46:01.251Z,10.10
2022-09-01T02:47:05.467Z,8.23
2022-09-01T02:48:10.379Z,8.40
2022-09-01T02:49:17.461Z,11.23
2022-09-01T02:50:20.171Z,12.10
2022-09-01T02:51:25.459Z,11.02
2022-09-01T02:52:29.699Z,13.27
2022-09-01T02:53:36.038Z,10.88
2022-09-01T02:54:39.017Z,10.77
2022-09-01T02:55:43.046Z,9.13
2022-09-01T02:56:49.847Z,12.20
2022-09-01T02:57:55.575Z,11.23
2022-09-01T02:58:57.929Z,10.60
2022-09-01T03:00:02.015Z,9.10
2022-09-01T03:01:13.710Z,9.45
2022-09-01T03:02:16.140Z,10.48
2022-09-01T03:03:19.993Z,8.15
2022-09-01T03:04:24.320Z,8.88
2022-09-01T03:05:30.049Z,11.80
2022-09-01T03:06:34.265Z,9.40
2022-09-01T03:07:37.910Z,11.25
2022-09-01T03:08:40.178Z,9.40
2022-09-01T03:09:43.686Z,11.30
2022-09-01T03:10:47.280Z,9.52
2022-09-01T03:11:52.458Z,8.43
2022-09-01T03:12:54.935Z,13.18
2022-09-01T03:13:57.665Z,10.38
2022-09-01T03:14:59.957Z,10.55
2022-09-01T03:16:02.561Z,10.65
2022-09-01T03:17:04.833Z,10.85
2022-09-01T03:18:08.996Z,11.18
2022-09-01T03:19:15.003Z,11.75
2022-09-01T03:20:19.485Z,14.18
2022-09-01T03:21:23.275Z,9.13
2022-09-01T03:22:26.983Z,11.38
2022-09-01T03:23:31.317Z,10.00
2022-09-01T03:24:33.604Z,13.23
2022-09-01T03:25:36.788Z,11.68
2022-09-01T03:26:40.420Z,11.50
2022-09-01T03:27:42.954Z,14.90
2022-09-01T03:28:46.944Z,11.88
2022-09-01T03:29:49.275Z,10.80
2022-09-01T03:30:54.054Z,11.00
2022-09-01T03:31:57.042Z,10.30
2022-09-01T03:33:01.477Z,11.77
2022-09-01T03:34:05.989Z,10.93
2022-09-01T03:35:12.880Z,10.55
2022-09-01T03:36:19.214Z,11.35
2022-09-01T03:37:23.216Z,11.85
2022-09-01T03:38:29.492Z,10.35
2022-09-01T03:39:32.089Z,11.50
2022-09-01T03:40:36.714Z,12.35
2022-09-01T03:41:39.014Z,9.77
2022-09-01T03:42:43.679Z,10.65
2022-09-01T03:43:48.562Z,10.98
2022-09-01T03:44:51.890Z,13.35
2022-09-01T03:45:56.503Z,13.10
2022-09-01T03:47:01.333Z,11.07
2022-09-01T03:48:09.000Z,13.57
2022-09-01T03:49:15.602Z,11.23
2022-09-01T03:50:21.899Z,11.88
2022-09-01T03:51:28.249Z,12.20
2022-09-01T03:52:30.563Z,14.90
2022-09-01T03:53:37.559Z,11.27
2022-09-01T03:54:40.774Z,13.80
2022-09-01T03:55:45.766Z,12.50
2022-09-01T03:56:49.114Z,14.10
2022-09-01T03:57:55.865Z,13.75
2022-09-01T03:58:59.725Z,12.30
2022-09-01T04:00:02.353Z,10.65
2022-09-01T04:01:05.875Z,11.15
2022-09-01T04:02:15.075Z,14.88
2022-09-01T04:03:28.372Z,11.10
2022-09-01T04:04:32.988Z,13.15
2022-09-01T04:05:37.557Z,15.35
2022-09-01T04:06:41.157Z,11.32
2022-09-01T04:07:45.739Z,11.38
2022-09-01T04:08:48.225Z,10.88
2022-09-01T04:09:52.620Z,13.30
2022-09-01T04:10:55.431Z,12.07
2022-09-01T04:11:57.822Z,14.40
2022-09-01T04:13:00.453Z,13.85
2022-09-01T04:14:02.766Z,13.50
2022-09-01T04:15:09.195Z,14.38
2022-09-01T04:16:47.655Z,12.95
2022-09-01T04:18:08.918Z,13.32
2022-09-01T04:19:20.403Z,12.13
2022-09-01T04:20:23.492Z,10.95
2022-09-01T04:21:26.379Z,11.25
2022-09-01T04:22:31.904Z,12.57
2022-09-01T04:23:37.006Z,12.23
2022-09-01T04:24:45.312Z,13.73
2022-09-01T04:25:50.438Z,14.50
2022-09-01T04:26:55.074Z,11.38
2022-09-01T04:27:58.693Z,10.55
2022-09-01T04:29:01.007Z,12.30
2022-09-01T04:30:03.747Z,10.48
2022-09-01T04:31:14.865Z,12.65
2022-09-01T04:32:21.541Z,12.07
2022-09-01T04:33:38.169Z,11.65
2022-09-01T04:34:41.696Z,13.10
2022-09-01T04:35:46.200Z,11.43
2022-09-01T04:36:50.047Z,16.02
2022-09-01T04:37:56.591Z,13.68
2022-09-01T04:39:01.270Z,11.25
2022-09-01T04:40:04.580Z,14.05
2022-09-01T04:41:07.617Z,13.90
2022-09-01T04:42:11.130Z,14.68
2022-09-01T04:43:13.452Z,9.80
2022-09-01T04:44:18.951Z,10.95
2022-09-01T04:45:27.315Z,12.55
2022-09-01T04:46:32.878Z,12.25
2022-09-01T04:47:37.562Z,12.40
2022-09-01T04:48:45.025Z,12.02
2022-09-01T04:49:48.970Z,13.93
2022-09-01T04:50:52.373Z,11.88
2022-09-01T04:52:01.024Z,11.70
2022-09-01T04:53:06.053Z,14.68
2022-09-01T04:54:14.620Z,13.27
2022-09-01T04:55:20.680Z,13.25
2022-09-01T04:56:25.170Z,11.60
2022-09-01T04:57:49.974Z,15.32
2022-09-01T04:58:55.812Z,13.27
2022-09-01T04:59:58.466Z,15.32
2022-09-01T05:01:06.277Z,17.02
2022-09-01T05:02:10.323Z,13.57
2022-09-01T05:03:12.629Z,18.02
2022-09-01T05:04:33.690Z,15.35
2022-09-01T05:05:43.015Z,14.32
2022-09-01T05:06:50.359Z,15.43
2022-09-01T05:07:55.289Z,15.85
2022-09-01T05:08:58.839Z,16.27
2022-09-01T05:10:22.058Z,17.50
2022-09-01T05:11:45.419Z,16.38
2022-09-01T05:12:57.255Z,15.88
2022-09-01T05:14:00.149Z,15.65
2022-09-01T05:15:06.265Z,15.93
2022-09-01T05:16:14.492Z,17.92
2022-09-01T05:17:18.930Z,15.57
2022-09-01T05:18:25.292Z,21.50
2022-09-01T05:19:29.568Z,13.48
2022-09-01T05:20:36.486Z,14.98
2022-09-01T05:21:38.796Z,13.73
2022-09-01T05:22:42.118Z,13.07
2022-09-01T05:23:46.285Z,14.75
2022-09-01T05:24:51.376Z,13.43
2022-09-01T05:25:57.797Z,14.68
2022-09-01T05:27:00.647Z,14.10
2022-09-01T05:28:03.805Z,13.43
2022-09-01T05:29:13.683Z,16.40
2022-09-01T05:30:18.636Z,13.77
2022-09-01T05:31:23.607Z,14.18
2022-09-01T05:32:26.957Z,12.50
2022-09-01T05:33:29.387Z,13.25
2022-09-01T05:34:36.312Z,13.60
2022-09-01T05:35:43.505Z,13.50
2022-09-01T05:36:46.225Z,11.52
2022-09-01T05:37:51.705Z,14.50
2022-09-01T05:38:54.831Z,12.95
2022-09-01T05:39:58.540Z,12.85
2022-09-01T05:41:08.477Z,13.07
2022-09-01T05:42:10.842Z,14.75
2022-09-01T05:43:14.833Z,13.40
2022-09-01T05:44:18.360Z,13.68
2022-09-01T05:45:26.713Z,15.70
2022-09-01T05:46:30.042Z,13.77
2022-09-01T05:47:36.498Z,16.27
2022-09-01T05:48:39.772Z,13.30
2022-09-01T05:49:44.113Z,13.95
2022-09-01T05:50:46.732Z,18.08
2022-09-01T05:51:51.686Z,15.30
2022-09-01T05:52:57.460Z,14.05
2022-09-01T05:54:00.259Z,16.05
2022-09-01T05:55:09.083Z,14.88
2022-09-01T05:56:15.203Z,14.63
2022-09-01T05:57:33.974Z,12.85
2022-09-01T06:00:01.909Z,14.10
2022-09-01T06:01:05.746Z,19.38
2022-09-01T06:02:09.286Z,13.40
2022-09-01T06:03:11.982Z,13.02
2022-09-01T06:04:18.080Z,16.00
2022-09-01T06:05:21.172Z,14.02
2022-09-01T06:06:36.734Z,12.80
2022-09-01T06:07:47.210Z,13.07
2022-09-01T06:08:51.728Z,13.27
2022-09-01T06:09:54.709Z,15.88
2022-09-01T06:10:58.648Z,14.07
2022-09-01T06:12:01.839Z,14.57
2022-09-01T06:13:05.979Z,15.30
2022-09-01T06:14:11.228Z,15.27
2022-09-01T06:15:16.393Z,14.20
2022-09-01T06:16:24.277Z,13.85
2022-09-01T06:17:30.812Z,15.80
2022-09-01T06:18:38.893Z,14.05
2022-09-01T06:19:42.654Z,12.10
2022-09-01T06:20:47.704Z,12.63
2022-09-01T06:21:51.245Z,14.80
2022-09-01T06:22:53.800Z,13.40
2022-09-01T06:23:58.137Z,12.88
2022-09-01T06:25:02.813Z,14.15
2022-09-01T06:26:18.949Z,12.95
2022-09-01T06:27:22.131Z,12.43
2022-09-01T06:28:25.449Z,14.55
2022-09-01T06:29:28.469Z,12.85
2022-09-01T06:30:34.747Z,14.45
2022-09-01T06:31:42.428Z,12.95
2022-09-01T06:32:46.693Z,13.38
2022-09-01T06:33:51.112Z,13.93
2022-09-01T06:34:53.465Z,13.65
2022-09-01T06:35:55.915Z,14.15
2022-09-01T06:36:59.779Z,14.32
2022-09-01T06:38:02.765Z,13.73
2022-09-01T06:39:19.600Z,14.40
2022-09-01T06:40:25.434Z,14.60
2022-09-01T06:41:29.033Z,14.35
2022-09-01T06:42:35.258Z,16.15
2022-09-01T06:43:40.093Z,13.95
2022-09-01T06:44:43.199Z,16.48
2022-09-01T06:45:54.341Z,14.73
2022-09-01T06:46:59.892Z,15.32
2022-09-01T06:48:02.368Z,16.35
2022-09-01T06:49:05.840Z,15.05
2022-09-01T06:50:08.631Z,14.45
2022-09-01T06:51:18.549Z,14.20
2022-09-01T06:52:25.616Z,13.82
2022-09-01T06:53:32.519Z,13.85
2022-09-01T06:54:39.248Z,14.68
2022-09-01T06:55:41.746Z,14.02
2022-09-01T06:56:44.975Z,14.30
2022-09-01T06:59:23.265Z,14.95
2022-09-01T07:00:26.651Z,13.88
2022-09-01T07:01:30.389Z,16.65
2022-09-01T07:02:33.727Z,15.10
2022-09-01T07:08:31.725Z,11.93
2022-09-01T07:09:47.917Z,13.18
2022-09-01T07:12:25.917Z,15.98
2022-09-01T07:13:30.811Z,16.23
2022-09-01T07:16:32.132Z,12.50
2022-09-01T07:18:28.814Z,15.18
2022-09-01T07:21:38.866Z,16.42
2022-09-01T07:22:35.939Z,12.27
2022-09-01T07:23:47.366Z,12.15
2022-09-01T07:25:16.792Z,11.80
2022-09-01T07:26:52.160Z,10.73
2022-09-01T07:27:54.628Z,11.38
2022-09-01T07:29:01.483Z,11.73
2022-09-01T07:30:04.279Z,11.82
2022-09-01T07:32:47.991Z,11.95
2022-09-01T07:33:55.738Z,11.43
2022-09-01T07:35:22.440Z,12.50
2022-09-01T07:36:26.918Z,11.70
2022-09-01T07:39:57.655Z,14.07
2022-09-01T07:44:13.655Z,9.93
2022-09-01T07:45:47.211Z,12.10
2022-09-01T07:47:19.566Z,11.27
2022-09-01T07:48:36.636Z,10.75
2022-09-01T07:52:31.397Z,12.65
2022-09-01T07:53:35.971Z,10.68
2022-09-01T07:54:40.394Z,10.85
2022-09-01T07:55:44.141Z,12.13
2022-09-01T07:56:47.229Z,14.63
2022-09-01T07:57:49.968Z,12.23
2022-09-01T07:58:53.632Z,10.00
2022-09-01T07:59:58.898Z,12.23
2022-09-01T08:01:18.897Z,12.55
2022-09-01T08:02:24.612Z,10.05
2022-09-01T08:03:27.228Z,9.85
2022-09-01T08:04:30.045Z,10.77
2022-09-01T08:05:33.542Z,9.45
2022-09-01T08:06:38.451Z,9.70
2022-09-01T08:07:57.659Z,10.73
2022-09-01T08:09:11.955Z,10.95
2022-09-01T08:10:28.023Z,10.73
2022-09-01T08:12:57.568Z,11.75
2022-09-01T08:14:02.314Z,10.80
2022-09-01T08:15:41.030Z,10.90
2022-09-01T08:16:39.369Z,8.75
2022-09-01T08:17:52.125Z,7.75
2022-09-01T08:18:57.046Z,8.98
2022-09-01T08:20:03.776Z,9.57
2022-09-01T08:21:30.963Z,8.05
2022-09-01T08:22:38.162Z,12.55
2022-09-01T08:23:55.108Z,7.97
2022-09-01T08:24:58.097Z,9.13
2022-09-01T08:26:06.986Z,8.50
2022-09-01T08:27:09.870Z,8.85
2022-09-01T08:28:14.880Z,10.07
2022-09-01T08:29:20.292Z,10.40
2022-09-01T08:30:23.464Z,7.30
2022-09-01T08:31:30.648Z,8.52
2022-09-01T08:32:35.638Z,10.15
2022-09-01T08:33:39.605Z,8.50
2022-09-01T08:34:43.466Z,7.93
2022-09-01T08:35:49.032Z,9.98
2022-09-01T08:36:52.793Z,10.18
2022-09-01T08:37:56.514Z,10.82
2022-09-01T08:39:00.141Z,10.00
2022-09-01T08:40:07.667Z,10.27
2022-09-01T08:41:19.237Z,8.77
2022-09-01T08:42:58.909Z,8.23
2022-09-01T08:44:25.482Z,8.70
2022-09-01T08:45:43.467Z,7.90
2022-09-01T08:46:46.387Z,9.73
2022-09-01T08:48:29.198Z,8.88
2022-09-01T08:49:25.778Z,11.88
2022-09-01T08:50:51.867Z,12.25
2022-09-01T08:53:09.186Z,11.13
2022-09-01T08:55:43.845Z,13.07
2022-09-01T08:56:47.301Z,11.65
2022-09-01T08:57:57.158Z,10.23
2022-09-01T08:59:02.907Z,12.48
2022-09-01T09:00:18.125Z,10.35
2022-09-01T09:01:42.765Z,10.48
2022-09-01T09:03:07.489Z,14.93
2022-09-01T09:04:28.431Z,11.85
2022-09-01T09:05:58.671Z,8.73
2022-09-01T09:07:27.727Z,10.32
2022-09-01T09:08:51.563Z,12.27
2022-09-01T09:10:02.974Z,10.38
2022-09-01T09:11:38.793Z,10.50
2022-09-01T09:13:08.204Z,9.50
2022-09-01T09:14:40.137Z,11.57
2022-09-01T09:15:47.282Z,8.32
2022-09-01T09:16:53.953Z,9.30
2022-09-01T09:18:05.252Z,8.77
2022-09-01T09:19:37.618Z,10.40
2022-09-01T09:20:40.875Z,9.75
2022-09-01T09:21:47.482Z,8.20
2022-09-01T09:22:50.971Z,7.45
2022-09-01T09:24:22.676Z,7.18
2022-09-01T09:25:25.240Z,8.50
2022-09-01T09:26:27.593Z,7.45
2022-09-01T09:27:36.567Z,7.78
2022-09-01T09:28:40.084Z,7.38
2022-09-01T09:29:45.489Z,7.20
2022-09-01T09:30:48.722Z,6.90
2022-09-01T09:32:22.583Z,5.95
2022-09-01T09:33:51.648Z,6.63
2022-09-01T09:35:34.282Z,7.70
2022-09-01T09:36:37.469Z,7.15
2022-09-01T09:37:39.816Z,6.25
2022-09-01T09:38:42.672Z,7.50
2022-09-01T09:39:45.473Z,5.85
2022-09-01T09:41:25.593Z,6.93
2022-09-01T09:42:33.415Z,6.63
2022-09-01T09:44:02.500Z,5.88
2022-09-01T09:45:05.898Z,6.60
2022-09-01T09:46:25.278Z,7.25
2022-09-01T09:47:44.714Z,7.07
2022-09-01T09:48:48.377Z,6.95
2022-09-01T09:50:12.425Z,7.80
2022-09-01T09:51:21.298Z,6.97
2022-09-01T09:52:23.604Z,8.52
2022-09-01T09:53:32.546Z,7.60
2022-09-01T09:54:37.393Z,6.53
2022-09-01T09:55:57.769Z,6.00
2022-09-01T09:57:09.600Z,6.38
2022-09-01T09:58:12.626Z,5.55
2022-09-01T09:59:57.114Z,7.75
2022-09-01T10:01:25.854Z,5.55
2022-09-01T10:02:43.914Z,5.40
2022-09-01T10:03:49.378Z,5.40
2022-09-01T10:04:55.774Z,4.97
2022-09-01T10:05:58.330Z,5.72
2022-09-01T10:07:00.588Z,4.75
2022-09-01T10:08:04.261Z,5.72
2022-09-01T10:09:27.296Z,5.13
2022-09-01T10:10:32.266Z,7.43
2022-09-01T10:11:41.465Z,7.32
2022-09-01T10:12:44.000Z,6.63
2022-09-01T10:13:46.246Z,6.13
2022-09-01T10:14:53.798Z,5.32
2022-09-01T10:15:59.801Z,6.72
2022-09-01T10:17:09.014Z,5.25
2022-09-01T10:18:21.764Z,6.38
2022-09-01T10:19:35.960Z,6.55
2022-09-01T10:20:39.373Z,5.88
2022-09-01T10:21:47.299Z,5.35
2022-09-01T10:22:50.975Z,5.55
2022-09-01T10:23:53.437Z,5.45
2022-09-01T10:24:56.981Z,7.13
2022-09-01T10:26:09.762Z,5.30
2022-09-01T10:27:34.876Z,5.57
2022-09-01T10:28:49.951Z,6.30
2022-09-01T10:31:29.400Z,5.13
2022-09-01T10:32:52.509Z,6.38
2022-09-01T10:33:59.165Z,6.70
2022-09-01T10:35:04.491Z,4.78
2022-09-01T10:36:08.159Z,7.65
2022-09-01T10:37:15.715Z,5.38
2022-09-01T10:38:29.366Z,5.50
2022-09-01T10:39:33.570Z,5.53
2022-09-01T10:40:49.274Z,5.13
2022-09-01T10:42:00.487Z,4.82
2022-09-01T10:43:25.579Z,5.88
2022-09-01T10:44:35.945Z,4.97
2022-09-01T10:45:43.902Z,4.57
2022-09-01T10:46:50.944Z,4.93
2022-09-01T10:47:54.733Z,7.07
2022-09-01T10:49:02.864Z,5.95
2022-09-01T10:50:35.458Z,5.15
2022-09-01T10:51:51.513Z,6.72
2022-09-01T10:52:57.418Z,7.82
2022-09-01T10:54:02.513Z,4.72
2022-09-01T10:55:26.672Z,4.72
2022-09-01T10:56:51.339Z,4.55
2022-09-01T10:58:11.428Z,6.80
2022-09-01T10:59:35.678Z,5.47
2022-09-01T11:00:40.322Z,6.80
2022-09-01T11:01:49.029Z,5.35
2022-09-01T11:06:12.506Z,6.22
2022-09-01T11:07:56.545Z,7.55
2022-09-01T11:09:00.796Z,5.60
2022-09-01T11:10:34.432Z,6.55
2022-09-01T11:11:47.283Z,4.47
2022-09-01T11:13:21.138Z,4.70
2022-09-01T11:14:26.847Z,5.57
2022-09-01T11:15:42.700Z,6.68
2022-09-01T11:17:23.024Z,7.15
2022-09-01T11:18:29.510Z,9.38
2022-09-01T11:19:44.483Z,5.93
2022-09-01T11:20:47.289Z,6.07
2022-09-01T11:22:09.364Z,4.47
2022-09-01T11:23:30.353Z,4.88
2022-09-01T11:24:38.372Z,5.85
2022-09-01T11:25:41.017Z,4.53
2022-09-01T11:26:48.528Z,4.45
2022-09-01T11:27:50.793Z,5.03
2022-09-01T11:28:53.047Z,6.15
2022-09-01T11:30:09.211Z,4.95
2022-09-01T11:31:19.224Z,4.65
2022-09-01T11:32:27.730Z,4.80
2022-09-01T11:33:56.263Z,4.68
2022-09-01T11:35:02.398Z,3.78
2022-09-01T11:36:13.054Z,5.97
2022-09-01T11:37:17.377Z,5.45
2022-09-01T11:38:20.556Z,3.97
2022-09-01T11:39:56.213Z,5.03
2022-09-01T11:40:58.645Z,3.88
2022-09-01T11:42:28.356Z,4.65
2022-09-01T11:43:31.529Z,3.70
2022-09-01T11:44:54.897Z,3.58
2022-09-01T11:47:14.601Z,3.47
2022-09-01T11:48:17.627Z,3.63
2022-09-01T11:49:32.123Z,5.35
2022-09-01T11:50:38.341Z,4.32
2022-09-01T11:51:46.884Z,8.13
2022-09-01T11:53:05.566Z,3.55
2022-09-01T11:54:08.585Z,3.92
2022-09-01T11:55:11.248Z,3.45
2022-09-01T11:56:17.723Z,5.95
2022-09-01T11:57:29.562Z,3.40
2022-09-01T11:58:39.072Z,4.13
2022-09-01T11:59:43.248Z,3.15
2022-09-01T12:00:45.577Z,4.10
2022-09-01T12:01:47.798Z,4.78
2022-09-01T12:02:52.020Z,3.92
2022-09-01T12:03:54.906Z,4.35
2022-09-01T12:04:57.925Z,3.70
2022-09-01T12:06:04.650Z,5.07
2022-09-01T12:07:11.203Z,3.33
2022-09-01T12:08:18.357Z,3.38
2022-09-01T12:09:44.220Z,4.13
2022-09-01T12:10:47.185Z,4.97
2022-09-01T12:11:51.195Z,6.00
2022-09-01T12:13:07.109Z,4.22
2022-09-01T12:14:12.062Z,2.88
2022-09-01T12:15:39.309Z,3.17
2022-09-01T12:17:01.299Z,3.15
2022-09-01T12:18:35.584Z,5.85
2022-09-01T12:19:39.378Z,3.65
2022-09-01T12:20:41.766Z,4.50
2022-09-01T12:22:16.329Z,3.30
2022-09-01T12:23:40.248Z,5.25
2022-09-01T12:24:48.145Z,3.80
2022-09-01T12:25:50.841Z,4.00
2022-09-01T12:26:57.312Z,3.97
2022-09-01T12:28:01.682Z,3.05
2022-09-01T12:29:05.536Z,3.20
2022-09-01T12:30:08.421Z,2.63
2022-09-01T12:31:17.055Z,3.00
2022-09-01T12:32:20.003Z,3.65
2022-09-01T12:33:24.765Z,4.03
2022-09-01T12:34:33.022Z,2.70
2022-09-01T12:35:35.883Z,2.88
2022-09-01T12:36:38.632Z,6.43
2022-09-01T12:37:41.089Z,3.78
2022-09-01T12:38:43.404Z,4.18
2022-09-01T12:39:51.489Z,3.13
2022-09-01T12:40:56.232Z,2.83
2022-09-01T12:42:09.474Z,3.75
2022-09-01T12:43:26.794Z,4.82
2022-09-01T12:44:53.776Z,4.75
2022-09-01T12:45:59.795Z,3.25
2022-09-01T12:47:08.845Z,3.13
2022-09-01T12:48:25.752Z,2.83
2022-09-01T12:49:37.657Z,2.25
2022-09-01T12:50:48.128Z,6.25
2022-09-01T12:52:05.444Z,4.13
2022-09-01T12:53:17.767Z,3.50
2022-09-01T12:54:25.796Z,2.95
2022-09-01T12:56:51.291Z,3.47
2022-09-01T12:57:57.541Z,5.25
2022-09-01T12:59:15.717Z,2.88
2022-09-01T13:00:21.973Z,5.25
2022-09-01T13:01:28.534Z,3.20
2022-09-01T13:02:36.858Z,4.15
2022-09-01T13:03:39.448Z,2.60
2022-09-01T13:04:42.022Z,2.30
2022-09-01T13:05:47.152Z,3.10
2022-09-01T13:06:50.183Z,4.68
2022-09-01T13:07:57.735Z,4.68
2022-09-01T13:08:59.971Z,3.40
2022-09-01T13:10:02.499Z,4.15
2022-09-01T13:11:11.387Z,4.13
2022-09-01T13:12:21.576Z,2.38
2022-09-01T13:13:25.795Z,3.50
2022-09-01T13:14:28.510Z,3.42
2022-09-01T13:15:31.357Z,3.53
2022-09-01T13:16:34.054Z,3.20
2022-09-01T13:17:38.394Z,4.25
2022-09-01T13:20:07.164Z,8.50
2022-09-01T13:21:09.870Z,7.50
2022-09-01T13:22:12.151Z,4.18
2022-09-01T13:23:14.783Z,2.80
2022-09-01T13:24:17.872Z,3.47
2022-09-01T13:25:22.277Z,3.78
2022-09-01T13:26:24.602Z,2.35
2022-09-01T13:27:27.030Z,2.33
2022-09-01T13:28:29.410Z,2.20
2022-09-01T13:29:31.811Z,2.42
2022-09-01T13:30:35.000Z,3.05
2022-09-01T13:31:37.579Z,3.72
2022-09-01T13:33:18.849Z,2.42
2022-09-01T13:34:22.394Z,4.88
2022-09-01T13:35:26.121Z,4.10
2022-09-01T13:36:46.929Z,3.50
2022-09-01T13:37:51.051Z,5.03
2022-09-01T13:38:55.688Z,6.00
2022-09-01T13:39:58.162Z,3.90
2022-09-01T13:41:02.149Z,3.47
2022-09-01T13:42:04.490Z,4.47
2022-09-01T13:43:06.895Z,3.03
2022-09-01T13:44:10.471Z,3.88
2022-09-01T13:45:15.146Z,5.10
2022-09-01T13:46:18.835Z,3.10
2022-09-01T13:47:29.748Z,3.85
2022-09-01T13:50:08.397Z,3.50
2022-09-01T13:51:15.389Z,4.97
2022-09-01T13:52:19.595Z,3.20
2022-09-01T13:53:22.290Z,4.07
2022-09-01T13:54:24.611Z,3.63
2022-09-01T13:55:30.055Z,4.13
2022-09-01T13:56:32.314Z,3.70
2022-09-01T13:57:36.089Z,4.10
2022-09-01T13:58:38.956Z,3.60
2022-09-01T13:59:41.924Z,7.30
2022-09-01T14:00:46.967Z,4.68
2022-09-01T14:01:49.458Z,4.63
2022-09-01T14:02:54.632Z,3.80
2022-09-01T14:04:00.259Z,8.82
2022-09-01T14:05:02.969Z,4.72
2022-09-01T14:06:06.649Z,3.15
2022-09-01T14:07:08.887Z,5.72
2022-09-01T14:08:12.433Z,3.22
2022-09-01T14:09:17.598Z,3.17
2022-09-01T14:10:21.568Z,10.63
2022-09-01T14:11:26.449Z,4.07
2022-09-01T14:12:29.889Z,5.78
2022-09-01T14:13:32.851Z,5.72
2022-09-01T14:15:58.043Z,4.15
2022-09-01T14:17:00.321Z,4.13
2022-09-01T14:18:03.262Z,3.88
2022-09-01T14:19:05.532Z,4.32
2022-09-01T14:20:12.747Z,2.50
2022-09-01T14:21:16.909Z,2.85
2022-09-01T14:22:19.196Z,2.72
2022-09-01T14:23:21.512Z,6.07
2022-09-01T14:24:24.036Z,5.10
2022-09-01T14:25:26.671Z,3.90
2022-09-01T14:26:29.024Z,2.78
2022-09-01T14:27:31.455Z,4.15
2022-09-01T14:28:33.677Z,3.97
2022-09-01T14:30:41.681Z,6.57
2022-09-01T14:31:44.902Z,2.65
2022-09-01T14:32:47.780Z,3.15
2022-09-01T14:33:50.352Z,3.30
2022-09-01T14:34:54.262Z,3.63
2022-09-01T14:35:56.497Z,7.03
2022-09-01T14:36:58.795Z,4.90
2022-09-01T14:38:02.640Z,2.83
2022-09-01T14:39:05.673Z,4.38
2022-09-01T14:40:10.211Z,4.22
2022-09-01T14:41:23.299Z,2.33
2022-09-01T14:42:28.984Z,3.05
2022-09-01T14:43:32.462Z,2.33
2022-09-01T14:44:38.376Z,4.50
2022-09-01T14:45:48.223Z,4.13
2022-09-01T14:46:50.824Z,4.05
2022-09-01T14:47:58.724Z,3.25
2022-09-01T14:49:02.033Z,3.22
2022-09-01T14:50:05.038Z,3.13
2022-09-01T14:51:09.033Z,4.10
2022-09-01T14:52:12.103Z,2.45
2022-09-01T14:53:14.903Z,3.08
2022-09-01T14:54:17.156Z,2.47
2022-09-01T14:55:19.999Z,2.95
2022-09-01T14:56:23.973Z,4.57
2022-09-01T14:57:31.343Z,2.70
2022-09-01T14:58:42.164Z,2.85
2022-09-01T14:59:44.424Z,5.13
2022-09-01T15:00:47.719Z,4.28
2022-09-01T15:01:50.126Z,3.33
2022-09-01T15:02:54.469Z,2.80
2022-09-01T15:03:57.013Z,3.08
2022-09-01T15:04:59.315Z,6.00
2022-09-01T15:06:01.618Z,4.07
2022-09-01T15:07:05.378Z,3.30
2022-09-01T15:08:13.020Z,4.85
2022-09-01T15:09:19.235Z,3.13
2022-09-01T15:10:25.838Z,2.75
2022-09-01T15:11:28.438Z,5.60
2022-09-01T15:12:31.551Z,2.72
2022-09-01T15:13:33.831Z,3.40
2022-09-01T15:14:36.924Z,4.38
2022-09-01T15:15:39.346Z,3.05
2022-09-01T15:16:41.987Z,3.33
2022-09-01T15:17:46.589Z,2.40
2022-09-01T15:18:49.194Z,5.00
2022-09-01T15:19:51.595Z,2.75
2022-09-01T15:20:54.995Z,4.20
2022-09-01T15:21:57.272Z,5.03
2022-09-01T15:23:00.926Z,3.80
2022-09-01T15:24:03.995Z,7.78
2022-09-01T15:25:06.739Z,3.15
2022-09-01T15:26:08.954Z,3.45
2022-09-01T15:27:11.522Z,3.28